CheckWX is a tool to help pilots better visualize weather data.  It is not intended as a substitute for an official pre-flight weather briefing.

14:47:19 UTC

RODN TAF
Kadena Air Base Airport
Japan
TAF RODN 230800Z 2308/2414 36012G18KT 9999 SCT015 OVC030 QNH3002INS TEMPO 2310/2315 36015G25KT BECMG 2323/2324 02012KT 9999 FEW020 SCT040 QNH3013INS TX22/2323Z TN17/2314Z

Mar-23@
08:00 UTC

Mar-23 @ 08:00 UTC

Mar-23@
23:00 UTC

Mar-23 @ 23:00 UTC

TAF RODN 230800Z 2308/2414 36012G18KT 9999 SCT015 OVC030 QNH3002INS
Wind
  • 360° at 12 KTS
  • {Gusting to 18 KTS
Cloud Levels
  • Scattered at 1,500' AGL
  • Overcast at 3,000' AGL

Mar-23@
10:00 UTC

Mar-23 @ 10:00 UTC

Mar-23@
15:00 UTC

Mar-23 @ 15:00 UTC

TEMPO 2310/2315 36015G25KT

Temporary

Temporary Changes expected for less than half the time period

Wind
  • 360° at 15 KTS
  • {Gusting to 25 KTS

Mar-23@
23:00 UTC

Mar-23 @ 23:00 UTC

Mar-24@
14:00 UTC

Mar-24 @ 14:00 UTC

BECMG 2323/2324 02012KT 9999 FEW020 SCT040 QNH3013INS TX22/2323Z TN17/2314Z

Becoming

Becoming Conditions expected by Sun, Mar 24, 2019 @ 00:00 UTC

Wind
  • 020° at 12 KTS
Cloud Levels
  • Few at 2,000' AGL
  • Scattered at 4,000' AGL